Time;durP1;ratioP1;P1;durP2;ratioP2;P2;SDS_P1;SDS_P2;PMS_P1;PMS_P2;Temp;Humidity;BMP_temperature;BMP_pressure;BME280_temperature;BME280_humidity;BME280_pressure;Samples;Min_cycle;Max_cycle;Signal;HPM_P1;HPM_P2
2022/06/13 00:00:29;;;;;;;2.47;2.08;;;;;;;;;;5133725;27;20023;-82
2022/06/13 00:02:55;;;;;;;3.13;2.22;;;;;;;;;;5131089;27;20352;-82
2022/06/13 00:05:21;;;;;;;1.92;1.70;;;;;;;;;;5130251;27;20019;-82
2022/06/13 00:07:47;;;;;;;3.00;1.83;;;;;;;;;;5130072;27;20023;-82
2022/06/13 00:10:14;;;;;;;2.05;1.80;;;;;;;;;;5130889;27;20106;-82
2022/06/13 00:12:42;;;;;;;2.97;1.80;;;;;;;;;;5114004;27;20105;-81
2022/06/13 00:15:09;;;;;;;1.92;1.70;;;;;;;;;;5129691;27;20040;-82
2022/06/13 00:17:34;;;;;;;3.17;2.00;;;;;;;;;;5112363;27;20467;-82
2022/06/13 00:20:00;;;;;;;4.30;2.00;;;;;;;;;;5109627;27;20084;-83
2022/06/13 00:22:26;;;;;;;2.40;2.20;;;;;;;;;;5131641;27;20050;-82
2022/06/13 00:24:51;;;;;;;3.75;2.15;;;;;;;;;;5130595;27;20096;-82
2022/06/13 00:27:17;;;;;;;3.50;1.95;;;;;;;;;;5133194;27;20026;-81
2022/06/13 00:29:44;;;;;;;2.30;1.70;;;;;;;;;;5133167;27;20019;-83
2022/06/13 00:32:10;;;;;;;2.10;1.90;;;;;;;;;;5113769;27;20037;-84
2022/06/13 00:34:35;;;;;;;2.17;1.83;;;;;;;;;;5133733;27;20094;-82
2022/06/13 00:37:01;;;;;;;2.28;1.73;;;;;;;;;;5113890;27;20043;-84
2022/06/13 00:39:26;;;;;;;3.20;1.88;;;;;;;;;;5114844;27;20028;-83
2022/06/13 00:41:52;;;;;;;3.97;1.98;;;;;;;;;;5114647;27;20526;-82
2022/06/13 00:44:17;;;;;;;2.78;1.95;;;;;;;;;;5133381;27;20060;-84
2022/06/13 00:46:43;;;;;;;2.30;1.88;;;;;;;;;;5133077;27;20350;-82
2022/06/13 00:49:11;;;;;;;2.55;1.92;;;;;;;;;;5115045;27;20031;-81
2022/06/13 00:51:43;;;;;;;2.15;1.95;;;;;;;;;;5132035;27;20038;-82
2022/06/13 00:54:11;;;;;;;2.58;2.10;;;;;;;;;;5132723;27;20504;-84
2022/06/13 00:56:37;;;;;;;4.75;2.13;;;;;;;;;;5114243;27;20023;-83
2022/06/13 00:59:11;;;;;;;1.92;1.70;;;;;;;;;;5132806;27;20027;-82
2022/06/13 01:01:37;;;;;;;2.38;1.95;;;;;;;;;;5114199;27;20475;-83
2022/06/13 01:04:04;;;;;;;3.00;2.30;;;;;;;;;;5132292;27;20027;-82
2022/06/13 01:06:34;;;;;;;2.05;1.85;;;;;;;;;;5132850;27;20050;-84
2022/06/13 01:09:03;;;;;;;2.03;1.80;;;;;;;;;;5133113;27;20054;-84
2022/06/13 01:11:29;;;;;;;2.77;2.03;;;;;;;;;;5132229;27;20435;-83
2022/06/13 01:14:26;;;;;;;3.03;2.28;;;;;;;;;;5130973;27;20031;-84
2022/06/13 01:17:11;;;;;;;2.60;2.10;;;;;;;;;;5130331;27;20029;-84
2022/06/13 01:19:51;;;;;;;2.65;2.00;;;;;;;;;;5112007;27;20030;-82
2022/06/13 01:22:29;;;;;;;2.78;2.20;;;;;;;;;;5128562;27;20104;-84
2022/06/13 01:25:13;;;;;;;3.22;2.28;;;;;;;;;;5130525;27;20103;-82
2022/06/13 01:27:44;;;;;;;4.15;2.38;;;;;;;;;;5125686;27;20023;-83
2022/06/13 01:31:03;;;;;;;2.70;2.10;;;;;;;;;;5131935;27;20023;-82
2022/06/13 01:33:41;;;;;;;2.10;1.80;;;;;;;;;;5067940;28;20037;-82
2022/06/13 01:36:25;;;;;;;2.67;2.10;;;;;;;;;;5116173;27;20051;-84
2022/06/13 01:39:09;;;;;;;3.35;2.00;;;;;;;;;;5126218;27;20024;-82
2022/06/13 01:41:59;;;;;;;3.30;2.00;;;;;;;;;;5129807;27;20031;-82
2022/06/13 01:44:27;;;;;;;2.20;1.70;;;;;;;;;;5127656;27;20061;-84
2022/06/13 01:46:53;;;;;;;2.63;1.90;;;;;;;;;;5131885;27;20126;-84
2022/06/13 01:49:31;;;;;;;3.95;1.90;;;;;;;;;;5128482;27;20102;-84
2022/06/13 01:52:04;;;;;;;2.55;1.90;;;;;;;;;;5131107;27;20034;-83
2022/06/13 01:55:16;;;;;;;2.55;2.28;;;;;;;;;;5129076;27;20102;-86
2022/06/13 01:57:50;;;;;;;2.85;2.00;;;;;;;;;;5067478;28;20036;-84
2022/06/13 02:00:25;;;;;;;2.17;1.80;;;;;;;;;;5052363;28;20037;-84
2022/06/13 02:02:56;;;;;;;2.80;2.33;;;;;;;;;;5108950;27;20376;-85
2022/06/13 02:05:25;;;;;;;1.90;1.73;;;;;;;;;;5113260;27;20106;-85
2022/06/13 02:07:57;;;;;;;2.37;2.10;;;;;;;;;;5132175;27;20665;-85
2022/06/13 02:10:27;;;;;;;1.95;1.75;;;;;;;;;;5131952;27;20261;-84
2022/06/13 02:12:57;;;;;;;2.92;1.60;;;;;;;;;;5111138;27;20027;-82
2022/06/13 02:15:28;;;;;;;3.72;1.63;;;;;;;;;;5131680;28;20076;-85
2022/06/13 02:18:02;;;;;;;2.40;1.92;;;;;;;;;;5129713;28;20031;-84
2022/06/13 02:20:36;;;;;;;5.05;2.25;;;;;;;;;;5112391;28;20023;-82
2022/06/13 02:23:07;;;;;;;2.20;1.75;;;;;;;;;;5128066;28;20023;-85
2022/06/13 02:25:45;;;;;;;2.00;1.70;;;;;;;;;;5131492;28;20027;-82
2022/06/13 02:28:13;;;;;;;2.92;2.20;;;;;;;;;;5113193;28;20023;-82
2022/06/13 02:30:49;;;;;;;4.05;2.20;;;;;;;;;;5113251;28;20035;-83
2022/06/13 02:33:50;;;;;;;2.72;1.90;;;;;;;;;;5131748;28;20846;-85
2022/06/13 02:36:27;;;;;;;1.83;1.70;;;;;;;;;;5131284;28;20051;-83
2022/06/13 02:39:10;;;;;;;3.63;1.88;;;;;;;;;;5130072;28;20031;-84
2022/06/13 02:41:59;;;;;;;1.92;1.73;;;;;;;;;;5131579;28;20076;-82
2022/06/13 02:44:35;;;;;;;2.00;1.80;;;;;;;;;;5131103;28;20114;-82
2022/06/13 02:47:09;;;;;;;2.58;2.28;;;;;;;;;;5128194;27;20467;-83
2022/06/13 02:50:02;;;;;;;2.38;2.13;;;;;;;;;;5133013;27;20019;-84
2022/06/13 02:52:35;;;;;;;2.88;2.03;;;;;;;;;;5116642;27;20023;-85
2022/06/13 02:55:07;;;;;;;3.25;2.28;;;;;;;;;;5133045;27;20030;-82
2022/06/13 02:57:56;;;;;;;2.33;2.13;;;;;;;;;;5115861;27;20039;-82
2022/06/13 03:00:42;;;;;;;2.55;2.00;;;;;;;;;;5134151;27;20114;-84
2022/06/13 03:03:17;;;;;;;4.10;2.47;;;;;;;;;;5134941;27;20111;-82
2022/06/13 03:05:57;;;;;;;2.88;1.83;;;;;;;;;;5133715;27;20051;-84
2022/06/13 03:08:47;;;;;;;3.25;2.20;;;;;;;;;;5131776;27;20027;-84
2022/06/13 03:11:31;;;;;;;3.78;2.33;;;;;;;;;;5133521;27;20057;-82
2022/06/13 03:14:22;;;;;;;2.90;2.20;;;;;;;;;;5115820;27;20027;-86
2022/06/13 03:17:04;;;;;;;3.58;2.22;;;;;;;;;;5132545;27;20501;-82
2022/06/13 03:19:37;;;;;;;2.30;2.05;;;;;;;;;;5134604;27;20043;-82
2022/06/13 03:22:18;;;;;;;2.30;2.10;;;;;;;;;;5134754;27;20031;-83
2022/06/13 03:25:01;;;;;;;2.65;1.85;;;;;;;;;;5132665;27;20374;-82
2022/06/13 03:27:43;;;;;;;3.08;1.98;;;;;;;;;;5135027;27;20477;-84
2022/06/13 03:30:13;;;;;;;2.60;1.98;;;;;;;;;;5115040;27;20019;-82
2022/06/13 03:35:44;;;;;;;2.20;1.98;;;;;;;;;;5133498;27;20034;-84
2022/06/13 03:38:17;;;;;;;3.70;1.85;;;;;;;;;;5133516;27;20651;-82
2022/06/13 03:40:48;;;;;;;3.00;1.92;;;;;;;;;;5131717;27;20031;-82
2022/06/13 03:43:23;;;;;;;3.08;1.80;;;;;;;;;;5113907;27;20050;-83
2022/06/13 03:45:53;;;;;;;2.33;2.10;;;;;;;;;;5134649;27;20463;-84
2022/06/13 03:48:31;;;;;;;2.40;1.92;;;;;;;;;;5134993;27;20440;-83
2022/06/13 03:51:09;;;;;;;2.10;1.90;;;;;;;;;;5113360;27;20019;-84
2022/06/13 03:53:42;;;;;;;3.65;1.95;;;;;;;;;;5115656;27;20031;-84
2022/06/13 03:56:15;;;;;;;2.97;2.03;;;;;;;;;;5133007;27;20467;-85
2022/06/13 03:58:55;;;;;;;2.20;1.90;;;;;;;;;;5134782;27;20023;-84
2022/06/13 04:01:26;;;;;;;2.97;2.20;;;;;;;;;;5114557;27;20066;-86
2022/06/13 04:03:51;;;;;;;2.22;2.03;;;;;;;;;;5134108;27;20102;-86
2022/06/13 04:06:40;;;;;;;3.00;2.67;;;;;;;;;;5134719;27;20114;-85
2022/06/13 04:09:14;;;;;;;2.55;2.05;;;;;;;;;;5134470;27;20106;-85
2022/06/13 04:11:52;;;;;;;2.35;2.10;;;;;;;;;;5134982;27;20098;-85
2022/06/13 04:14:30;;;;;;;3.22;2.22;;;;;;;;;;5116137;27;20022;-85
2022/06/13 04:17:14;;;;;;;2.00;1.80;;;;;;;;;;5116462;27;20471;-85
2022/06/13 04:20:01;;;;;;;2.05;1.75;;;;;;;;;;5112335;27;20030;-85
2022/06/13 04:22:54;;;;;;;2.45;2.10;;;;;;;;;;5116069;27;20387;-85
2022/06/13 04:25:39;;;;;;;3.47;2.22;;;;;;;;;;5114602;27;20106;-85
2022/06/13 04:28:44;;;;;;;2.20;1.80;;;;;;;;;;5130965;27;20031;-85
2022/06/13 04:31:11;;;;;;;1.83;1.65;;;;;;;;;;5088856;27;20058;-86
2022/06/13 04:33:41;;;;;;;2.00;1.75;;;;;;;;;;5115417;27;20025;-85
2022/06/13 04:36:10;;;;;;;2.25;1.35;;;;;;;;;;5132245;27;20476;-86
2022/06/13 04:38:39;;;;;;;1.50;1.40;;;;;;;;;;5132013;27;20052;-84
2022/06/13 04:41:05;;;;;;;1.63;1.33;;;;;;;;;;5133373;27;20057;-84
2022/06/13 04:43:39;;;;;;;1.30;1.20;;;;;;;;;;5133579;27;20259;-84
2022/06/13 04:46:08;;;;;;;1.30;1.20;;;;;;;;;;5133560;27;20491;-84
2022/06/13 04:48:36;;;;;;;2.20;1.30;;;;;;;;;;5131018;27;20030;-83
2022/06/13 04:51:08;;;;;;;2.13;1.58;;;;;;;;;;5131308;27;20028;-83
2022/06/13 04:53:57;;;;;;;1.35;1.20;;;;;;;;;;5131769;27;20034;-85
2022/06/13 04:56:23;;;;;;;1.38;1.20;;;;;;;;;;5113678;27;20383;-87
2022/06/13 04:58:52;;;;;;;1.75;1.45;;;;;;;;;;5129698;27;20431;-85
2022/06/13 05:01:21;;;;;;;2.47;1.93;;;;;;;;;;5132671;27;20728;-84
2022/06/13 05:03:47;;;;;;;1.55;1.45;;;;;;;;;;5133204;27;20030;-85
2022/06/13 05:06:34;;;;;;;1.98;1.75;;;;;;;;;;5113751;27;20030;-86
2022/06/13 05:09:04;;;;;;;2.40;1.30;;;;;;;;;;5132575;27;20019;-85
2022/06/13 05:11:41;;;;;;;1.23;1.13;;;;;;;;;;5130593;27;20459;-84
2022/06/13 05:14:33;;;;;;;1.98;1.33;;;;;;;;;;5131331;27;20083;-84
2022/06/13 05:17:21;;;;;;;1.60;1.10;;;;;;;;;;5092132;27;20110;-83
2022/06/13 05:20:03;;;;;;;1.25;1.10;;;;;;;;;;5112930;27;20054;-84
2022/06/13 05:22:49;;;;;;;1.17;1.00;;;;;;;;;;5132493;27;20102;-83
2022/06/13 05:25:23;;;;;;;1.42;1.20;;;;;;;;;;5132630;27;20035;-84
2022/06/13 05:27:49;;;;;;;1.30;1.20;;;;;;;;;;5132808;27;20073;-85
2022/06/13 05:30:16;;;;;;;1.33;1.20;;;;;;;;;;5132964;27;21473;-86
2022/06/13 05:32:43;;;;;;;1.33;1.02;;;;;;;;;;5127680;27;20104;-85
2022/06/13 05:35:17;;;;;;;1.33;0.95;;;;;;;;;;5133053;27;20034;-87
2022/06/13 05:37:42;;;;;;;1.20;1.10;;;;;;;;;;5132240;27;20051;-85
2022/06/13 05:40:20;;;;;;;1.35;1.20;;;;;;;;;;5112407;27;20050;-85
2022/06/13 05:42:46;;;;;;;1.95;1.30;;;;;;;;;;5131314;27;20027;-85
2022/06/13 05:45:17;;;;;;;2.53;1.33;;;;;;;;;;5111328;27;20031;-84
2022/06/13 05:47:45;;;;;;;2.50;1.98;;;;;;;;;;5133775;27;20030;-84
2022/06/13 05:50:15;;;;;;;2.33;2.05;;;;;;;;;;5132600;27;20141;-84
2022/06/13 05:52:41;;;;;;;2.95;2.40;;;;;;;;;;5114499;27;20041;-85
2022/06/13 05:55:07;;;;;;;3.05;2.67;;;;;;;;;;5132750;27;20031;-85
2022/06/13 05:57:32;;;;;;;3.30;2.30;;;;;;;;;;5114240;27;20116;-83
2022/06/13 05:59:58;;;;;;;2.28;1.92;;;;;;;;;;5114349;27;20038;-86
2022/06/13 06:02:23;;;;;;;2.60;1.90;;;;;;;;;;5112135;27;20109;-84
2022/06/13 06:04:49;;;;;;;2.47;1.67;;;;;;;;;;5129042;27;20106;-85
2022/06/13 06:07:14;;;;;;;3.53;2.10;;;;;;;;;;5126497;27;20015;-86
2022/06/13 06:09:40;;;;;;;3.53;2.53;;;;;;;;;;5125791;27;20440;-85
2022/06/13 06:12:05;;;;;;;3.40;2.60;;;;;;;;;;5129730;27;20436;-85
2022/06/13 06:14:31;;;;;;;2.83;2.53;;;;;;;;;;5107854;28;20030;-86
2022/06/13 06:16:56;;;;;;;2.92;2.63;;;;;;;;;;5128793;28;20316;-84
2022/06/13 06:19:22;;;;;;;3.00;2.70;;;;;;;;;;5130491;28;20026;-84
2022/06/13 06:21:48;;;;;;;3.75;3.08;;;;;;;;;;5114069;27;20394;-86
2022/06/13 06:24:13;;;;;;;3.28;2.78;;;;;;;;;;5118001;27;20050;-84
2022/06/13 06:26:38;;;;;;;3.85;2.35;;;;;;;;;;5131647;27;20027;-84
2022/06/13 06:29:04;;;;;;;2.70;2.40;;;;;;;;;;5133284;27;20386;-84
2022/06/13 06:31:29;;;;;;;2.97;2.67;;;;;;;;;;5135912;27;20055;-84
2022/06/13 06:33:55;;;;;;;3.63;2.97;;;;;;;;;;5139862;27;20019;-84
2022/06/13 06:36:20;;;;;;;2.42;2.05;;;;;;;;;;5133294;27;20049;-83
2022/06/13 06:38:46;;;;;;;2.85;2.50;;;;;;;;;;5135157;27;20030;-84
2022/06/13 06:41:12;;;;;;;2.10;1.77;;;;;;;;;;5133270;27;20463;-84
2022/06/13 06:43:37;;;;;;;2.33;1.98;;;;;;;;;;5135657;27;20080;-84
2022/06/13 06:46:04;;;;;;;1.90;1.70;;;;;;;;;;5132571;27;20515;-84
2022/06/13 06:48:30;;;;;;;1.30;1.20;;;;;;;;;;5134177;27;20092;-85
2022/06/13 06:50:56;;;;;;;2.53;2.00;;;;;;;;;;5134968;27;20019;-85
2022/06/13 06:53:24;;;;;;;1.95;1.75;;;;;;;;;;5134166;27;20073;-84
2022/06/13 07:01:20;;;;;;;6.95;6.25;;;;;;;;;;5132843;27;21872;-84
2022/06/13 07:03:45;;;;;;;1.88;1.60;;;;;;;;;;5135293;27;20812;-85
2022/06/13 07:06:13;;;;;;;1.60;1.45;;;;;;;;;;5132668;27;20015;-84
2022/06/13 07:08:38;;;;;;;1.90;1.20;;;;;;;;;;5130866;27;20019;-84
2022/06/13 07:13:51;;;;;;;3.28;1.30;;;;;;;;;;5133164;27;20026;-87
2022/06/13 07:16:17;;;;;;;2.25;1.60;;;;;;;;;;5136000;27;20019;-84
2022/06/13 07:18:43;;;;;;;2.70;1.27;;;;;;;;;;5116579;27;20083;-85
2022/06/13 07:21:09;;;;;;;1.30;1.20;;;;;;;;;;5134353;27;20027;-84
2022/06/13 07:23:34;;;;;;;1.38;1.23;;;;;;;;;;5117780;27;20088;-84
2022/06/13 07:26:00;;;;;;;2.63;1.30;;;;;;;;;;5133570;27;20441;-86
2022/06/13 07:28:26;;;;;;;1.55;1.17;;;;;;;;;;5116939;27;20023;-86
2022/06/13 07:30:52;;;;;;;1.30;1.20;;;;;;;;;;5135475;27;20068;-83
2022/06/13 07:33:18;;;;;;;2.05;1.30;;;;;;;;;;5133568;27;20046;-83
2022/06/13 07:35:51;;;;;;;1.90;1.35;;;;;;;;;;5132191;27;20035;-84
2022/06/13 07:38:18;;;;;;;2.03;1.40;;;;;;;;;;5088617;28;20040;-85
2022/06/13 07:40:50;;;;;;;2.80;1.50;;;;;;;;;;5089231;28;20384;-85
2022/06/13 07:43:29;;;;;;;1.40;1.20;;;;;;;;;;5096149;28;20019;-84
2022/06/13 07:45:57;;;;;;;2.80;1.60;;;;;;;;;;5092407;28;20429;-82
2022/06/13 07:48:23;;;;;;;2.03;1.50;;;;;;;;;;5092908;28;20490;-85
2022/06/13 07:50:48;;;;;;;3.13;1.70;;;;;;;;;;5091855;28;20016;-86
2022/06/13 07:53:14;;;;;;;1.70;1.35;;;;;;;;;;5093472;28;20028;-83
2022/06/13 07:55:40;;;;;;;1.48;1.30;;;;;;;;;;5090789;28;20038;-83
2022/06/13 07:58:07;;;;;;;1.85;1.60;;;;;;;;;;5088663;28;20082;-86
2022/06/13 08:00:36;;;;;;;1.60;1.50;;;;;;;;;;5074995;28;20039;-84
2022/06/13 08:03:04;;;;;;;1.80;1.50;;;;;;;;;;5075214;28;20030;-86
2022/06/13 08:05:30;;;;;;;2.03;1.70;;;;;;;;;;5095156;28;20491;-82
2022/06/13 08:07:56;;;;;;;1.60;1.30;;;;;;;;;;5096249;28;20058;-85
2022/06/13 08:10:22;;;;;;;1.77;1.40;;;;;;;;;;5092329;28;20518;-84
2022/06/13 08:12:48;;;;;;;1.60;1.40;;;;;;;;;;5093752;28;20026;-84
2022/06/13 08:15:15;;;;;;;1.88;1.25;;;;;;;;;;5074493;28;20058;-84
2022/06/13 08:17:41;;;;;;;1.75;1.50;;;;;;;;;;5094870;28;20028;-84
2022/06/13 08:20:08;;;;;;;2.83;1.80;;;;;;;;;;5093555;28;20028;-85
2022/06/13 08:22:40;;;;;;;2.88;2.00;;;;;;;;;;5093606;28;20103;-84
2022/06/13 08:25:06;;;;;;;2.65;1.75;;;;;;;;;;5074747;28;20031;-84
2022/06/13 08:27:31;;;;;;;1.70;1.60;;;;;;;;;;5080778;28;20391;-84
2022/06/13 08:29:57;;;;;;;2.50;1.90;;;;;;;;;;5075404;28;20517;-85
2022/06/13 08:32:22;;;;;;;1.60;1.50;;;;;;;;;;5091191;28;20513;-84
2022/06/13 08:34:48;;;;;;;1.55;1.40;;;;;;;;;;5088632;28;20549;-83
2022/06/13 08:37:13;;;;;;;4.75;1.95;;;;;;;;;;5103939;28;20050;-83
2022/06/13 08:39:39;;;;;;;2.42;1.67;;;;;;;;;;5112252;28;20028;-83
2022/06/13 08:42:30;;;;;;;2.03;1.35;;;;;;;;;;5109723;28;20016;-84
2022/06/13 08:45:04;;;;;;;1.60;1.50;;;;;;;;;;5111440;27;20023;-82
2022/06/13 08:47:46;;;;;;;2.28;1.40;;;;;;;;;;5111717;28;20058;-81
2022/06/13 08:50:17;;;;;;;3.17;1.80;;;;;;;;;;5109035;28;20028;-79
2022/06/13 08:52:55;;;;;;;2.10;1.45;;;;;;;;;;5091826;28;20032;-81
2022/06/13 08:55:48;;;;;;;1.88;1.67;;;;;;;;;;5089669;28;20028;-81
2022/06/13 08:58:28;;;;;;;2.03;1.80;;;;;;;;;;5109459;28;20102;-82
2022/06/13 09:01:24;;;;;;;1.98;1.60;;;;;;;;;;5112295;28;20497;-85
2022/06/13 09:03:52;;;;;;;2.17;1.65;;;;;;;;;;5092939;28;20509;-85
2022/06/13 09:06:24;;;;;;;2.00;1.45;;;;;;;;;;5113284;28;20105;-85
2022/06/13 09:09:18;;;;;;;1.98;1.50;;;;;;;;;;5113628;28;20082;-86
2022/06/13 09:11:56;;;;;;;1.67;1.58;;;;;;;;;;5081464;28;20388;-85
2022/06/13 09:14:44;;;;;;;1.65;1.55;;;;;;;;;;5112740;28;20103;-87
2022/06/13 09:17:25;;;;;;;4.15;1.88;;;;;;;;;;5111700;28;20015;-88
2022/06/13 09:20:28;;;;;;;1.90;1.70;;;;;;;;;;5093488;28;20088;-86
2022/06/13 09:23:06;;;;;;;2.28;1.65;;;;;;;;;;5051777;28;20495;-85
2022/06/13 09:25:38;;;;;;;1.50;1.20;;;;;;;;;;5111275;28;20038;-88
2022/06/13 09:28:16;;;;;;;1.77;1.42;;;;;;;;;;5110223;28;20046;-87
2022/06/13 09:30:47;;;;;;;2.38;1.50;;;;;;;;;;5110379;28;20020;-86
2022/06/13 09:33:33;;;;;;;1.75;1.65;;;;;;;;;;5093758;28;20023;-88
2022/06/13 09:36:16;;;;;;;1.88;1.63;;;;;;;;;;5110291;28;20524;-86
2022/06/13 09:38:47;;;;;;;2.00;1.58;;;;;;;;;;5076155;28;20024;-85
2022/06/13 09:41:35;;;;;;;1.70;1.60;;;;;;;;;;5096714;28;20085;-85
2022/06/13 09:44:22;;;;;;;1.88;1.50;;;;;;;;;;5065121;28;20040;-88
2022/06/13 09:46:55;;;;;;;1.98;1.60;;;;;;;;;;5090979;28;20024;-86
2022/06/13 09:49:39;;;;;;;1.52;1.40;;;;;;;;;;5093426;28;20115;-85
2022/06/13 09:52:13;;;;;;;1.77;1.50;;;;;;;;;;5102635;28;20549;-86
2022/06/13 09:55:02;;;;;;;2.83;1.63;;;;;;;;;;5096133;28;20043;-86
2022/06/13 09:57:59;;;;;;;2.47;1.95;;;;;;;;;;5097778;28;20059;-87
2022/06/13 10:00:37;;;;;;;1.73;1.55;;;;;;;;;;5091239;28;20051;-84
2022/06/13 10:03:34;;;;;;;1.60;1.45;;;;;;;;;;5070911;28;20075;-87
2022/06/13 10:06:25;;;;;;;2.20;1.70;;;;;;;;;;5098203;28;20124;-85
2022/06/13 10:09:06;;;;;;;2.17;1.83;;;;;;;;;;5096153;28;20030;-86
2022/06/13 10:11:56;;;;;;;1.90;1.50;;;;;;;;;;5097087;28;20112;-88
2022/06/13 10:14:56;;;;;;;4.93;2.03;;;;;;;;;;5098613;28;20036;-85
2022/06/13 10:17:38;;;;;;;1.40;1.30;;;;;;;;;;5095604;28;20036;-85
2022/06/13 10:20:24;;;;;;;2.70;2.20;;;;;;;;;;5069824;28;20028;-89
2022/06/13 10:22:59;;;;;;;2.00;1.67;;;;;;;;;;5090734;28;20024;-85
2022/06/13 10:25:48;;;;;;;1.83;1.42;;;;;;;;;;5093729;28;20028;-86
2022/06/13 10:28:27;;;;;;;2.40;1.75;;;;;;;;;;5092784;28;20028;-87
2022/06/13 10:31:05;;;;;;;1.40;1.30;;;;;;;;;;5073873;28;20019;-84
2022/06/13 10:33:46;;;;;;;1.85;1.55;;;;;;;;;;5078509;28;20042;-86
2022/06/13 10:36:21;;;;;;;1.98;1.55;;;;;;;;;;5092993;28;20118;-86
2022/06/13 10:38:47;;;;;;;2.30;2.10;;;;;;;;;;5098461;28;20057;-85
2022/06/13 10:41:13;;;;;;;2.13;1.48;;;;;;;;;;5095762;28;20024;-83
2022/06/13 10:43:42;;;;;;;1.50;1.40;;;;;;;;;;5094356;28;20031;-86
2022/06/13 10:46:09;;;;;;;;;;;;;;;;;;5091012;28;20020;-84
2022/06/13 10:49:11;;;;;;;1.80;1.50;;;;;;;;;;5105647;28;19955;-84
2022/06/13 10:51:40;;;;;;;3.53;1.50;;;;;;;;;;5078108;28;20388;-83
2022/06/13 10:54:12;;;;;;;1.73;1.52;;;;;;;;;;5091344;28;20032;-86
2022/06/13 10:56:49;;;;;;;1.70;1.60;;;;;;;;;;5095319;28;20038;-84
2022/06/13 10:59:27;;;;;;;2.08;1.60;;;;;;;;;;5070499;28;20114;-82
2022/06/13 11:02:00;;;;;;;2.03;1.50;;;;;;;;;;5081397;28;20035;-85
2022/06/13 11:04:36;;;;;;;2.53;1.80;;;;;;;;;;5079109;28;20089;-84
2022/06/13 11:07:13;;;;;;;1.70;1.60;;;;;;;;;;5091699;28;20471;-84
2022/06/13 11:09:42;;;;;;;1.90;1.75;;;;;;;;;;5095926;28;20060;-85
2022/06/13 11:12:27;;;;;;;2.40;1.50;;;;;;;;;;5101495;28;20458;-82
2022/06/13 11:23:47;;;;;;;2.38;1.73;;;;;;;;;;5101414;28;20046;-87
2022/06/13 11:28:58;;;;;;;2.08;1.60;;;;;;;;;;5103017;28;20034;-85
2022/06/13 11:31:33;;;;;;;2.20;1.55;;;;;;;;;;5102757;28;20112;-85
2022/06/13 11:34:19;;;;;;;1.80;1.50;;;;;;;;;;5104447;28;20383;-83
2022/06/13 11:36:56;;;;;;;1.60;1.50;;;;;;;;;;5102944;28;20050;-85
2022/06/13 11:39:33;;;;;;;2.60;1.85;;;;;;;;;;5107320;28;20110;-84
2022/06/13 11:41:58;;;;;;;2.10;1.70;;;;;;;;;;5094718;28;20466;-83
2022/06/13 11:44:25;;;;;;;1.85;1.58;;;;;;;;;;5113486;28;20027;-85
2022/06/13 11:46:53;;;;;;;2.80;1.90;;;;;;;;;;5113019;28;20129;-85
2022/06/13 11:49:36;;;;;;;1.88;1.60;;;;;;;;;;5106272;28;20035;-84
2022/06/13 11:55:26;;;;;;;1.63;1.50;;;;;;;;;;5112954;28;20030;-85
2022/06/13 11:57:58;;;;;;;2.03;1.50;;;;;;;;;;5113458;28;20023;-87
2022/06/13 12:00:37;;;;;;;2.20;1.52;;;;;;;;;;5111725;28;20480;-86
2022/06/13 12:03:16;;;;;;;2.15;1.65;;;;;;;;;;5093596;28;20387;-87
2022/06/13 12:05:42;;;;;;;1.75;1.55;;;;;;;;;;5094703;28;20388;-86
2022/06/13 12:08:14;;;;;;;1.60;1.50;;;;;;;;;;5113188;28;20081;-86
2022/06/13 12:10:41;;;;;;;2.17;1.55;;;;;;;;;;5112963;28;20420;-86
2022/06/13 12:13:16;;;;;;;1.63;1.50;;;;;;;;;;5111801;28;20028;-86
2022/06/13 12:15:48;;;;;;;2.20;1.50;;;;;;;;;;5090771;28;20073;-87
2022/06/13 12:18:40;;;;;;;1.95;1.83;;;;;;;;;;5112984;28;20361;-85
2022/06/13 12:21:32;;;;;;;3.95;1.48;;;;;;;;;;5111884;28;20062;-85
2022/06/13 12:24:14;;;;;;;2.60;1.75;;;;;;;;;;5112341;28;20149;-85
2022/06/13 12:26:44;;;;;;;1.80;1.70;;;;;;;;;;5093620;28;20024;-85
2022/06/13 12:29:45;;;;;;;1.70;1.60;;;;;;;;;;5113190;28;20532;-86
2022/06/13 12:32:22;;;;;;;1.55;1.45;;;;;;;;;;5106226;28;20024;-84
2022/06/13 12:35:10;;;;;;;1.70;1.60;;;;;;;;;;5092522;28;20028;-85
2022/06/13 12:37:56;;;;;;;1.88;1.67;;;;;;;;;;5111575;28;20563;-85
2022/06/13 12:41:03;;;;;;;2.15;1.45;;;;;;;;;;5110699;28;20039;-85
2022/06/13 12:43:42;;;;;;;1.58;1.30;;;;;;;;;;5051866;28;20653;-86
2022/06/13 12:46:31;;;;;;;1.77;1.60;;;;;;;;;;5093350;28;20019;-84
2022/06/13 12:49:41;;;;;;;1.60;1.50;;;;;;;;;;5091536;28;20036;-86
2022/06/13 12:52:12;;;;;;;1.75;1.60;;;;;;;;;;5111027;28;20037;-85
2022/06/13 12:54:47;;;;;;;3.45;1.90;;;;;;;;;;5094267;28;20031;-84
2022/06/13 12:57:36;;;;;;;1.70;1.60;;;;;;;;;;5110390;28;20027;-84
2022/06/13 13:00:16;;;;;;;1.55;1.38;;;;;;;;;;5093750;28;20049;-86
2022/06/13 13:02:44;;;;;;;1.88;1.70;;;;;;;;;;5111945;28;20038;-85
2022/06/13 13:05:09;;;;;;;1.92;1.67;;;;;;;;;;5111236;28;20035;-87
2022/06/13 13:07:56;;;;;;;1.50;1.40;;;;;;;;;;5093169;28;20030;-85
2022/06/13 13:10:33;;;;;;;1.98;1.50;;;;;;;;;;5111732;28;20459;-85
2022/06/13 13:13:37;;;;;;;1.40;1.30;;;;;;;;;;5109360;28;20028;-86
2022/06/13 13:16:17;;;;;;;1.60;1.50;;;;;;;;;;5095221;28;20576;-86
2022/06/13 13:19:05;;;;;;;2.17;1.50;;;;;;;;;;5111170;28;20020;-86
2022/06/13 13:21:37;;;;;;;2.00;1.40;;;;;;;;;;5101649;28;20533;-85
2022/06/13 13:24:05;;;;;;;1.90;1.20;;;;;;;;;;5110128;28;20064;-85
2022/06/13 13:26:55;;;;;;;2.20;1.50;;;;;;;;;;5111071;28;20027;-85
2022/06/13 13:29:32;;;;;;;2.22;1.50;;;;;;;;;;5105945;28;20387;-85
2022/06/13 13:32:07;;;;;;;2.03;1.60;;;;;;;;;;5106070;28;20019;-85
2022/06/13 13:34:35;;;;;;;1.40;1.30;;;;;;;;;;5110194;28;20463;-84
2022/06/13 13:37:22;;;;;;;1.60;1.50;;;;;;;;;;5110173;28;20056;-86
2022/06/13 13:40:26;;;;;;;1.30;1.20;;;;;;;;;;5110982;28;20259;-85
2022/06/13 13:43:08;;;;;;;2.47;1.60;;;;;;;;;;5073826;28;20053;-89
2022/06/13 13:45:48;;;;;;;1.50;1.40;;;;;;;;;;5111600;28;20020;-91
2022/06/13 13:48:21;;;;;;;2.38;1.50;;;;;;;;;;5107855;28;20463;-91
2022/06/13 13:51:05;;;;;;;1.55;1.40;;;;;;;;;;5110948;28;20031;-89
2022/06/13 13:53:43;;;;;;;1.50;1.40;;;;;;;;;;5107086;28;20020;-90
2022/06/13 13:56:22;;;;;;;1.10;1.10;;;;;;;;;;5111463;28;20124;-90
2022/06/13 13:58:48;;;;;;;1.35;1.20;;;;;;;;;;5107227;28;20268;-91
2022/06/13 14:01:41;;;;;;;1.40;1.30;;;;;;;;;;5110888;28;20367;-89
2022/06/13 14:04:42;;;;;;;3.33;1.70;;;;;;;;;;5097251;27;20127;-90
2022/06/13 14:07:34;;;;;;;1.48;1.10;;;;;;;;;;5059952;28;20032;-90
2022/06/13 14:10:00;;;;;;;1.45;1.35;;;;;;;;;;5112012;28;20027;-89
2022/06/13 14:12:26;;;;;;;1.95;1.83;;;;;;;;;;5112153;28;20031;-91
2022/06/13 14:15:07;;;;;;;1.35;1.20;;;;;;;;;;5111795;28;20031;-88
2022/06/13 14:17:50;;;;;;;1.95;1.60;;;;;;;;;;5111835;28;20048;-89
2022/06/13 14:20:26;;;;;;;3.92;3.63;;;;;;;;;;5094023;28;20061;-92
2022/06/13 14:22:59;;;;;;;1.45;1.35;;;;;;;;;;5092376;28;20114;-91
2022/06/13 14:25:36;;;;;;;1.40;1.30;;;;;;;;;;5116737;28;20019;-90
2022/06/13 14:28:11;;;;;;;1.88;1.40;;;;;;;;;;5098341;28;20372;-90
2022/06/13 14:31:08;;;;;;;1.63;1.30;;;;;;;;;;5108623;28;20031;-90
2022/06/13 14:36:48;;;;;;;1.90;1.70;;;;;;;;;;5107146;28;20132;-90
2022/06/13 14:39:29;;;;;;;3.08;1.85;;;;;;;;;;5111729;28;20050;-90
2022/06/13 14:42:05;;;;;;;2.47;1.30;;;;;;;;;;5114866;28;20486;-93
2022/06/13 14:44:46;;;;;;;1.73;1.50;;;;;;;;;;5110486;28;20176;-90
2022/06/13 14:47:33;;;;;;;1.67;1.45;;;;;;;;;;5095200;28;20060;-89
2022/06/13 14:49:59;;;;;;;1.40;1.30;;;;;;;;;;5108718;28;20084;-90
2022/06/13 14:52:30;;;;;;;1.60;1.38;;;;;;;;;;5110489;28;20028;-86
2022/06/13 14:55:01;;;;;;;1.30;1.20;;;;;;;;;;5115212;28;20020;-90
2022/06/13 14:57:26;;;;;;;1.30;1.20;;;;;;;;;;5091268;28;20031;-87
2022/06/13 15:00:21;;;;;;;1.70;1.40;;;;;;;;;;5113376;28;20083;-87
2022/06/13 15:02:59;;;;;;;1.75;1.40;;;;;;;;;;5109602;28;20069;-87
2022/06/13 15:05:30;;;;;;;2.40;1.40;;;;;;;;;;5090766;28;20431;-86
2022/06/13 15:08:22;;;;;;;1.52;1.30;;;;;;;;;;5111678;28;20035;-88
2022/06/13 15:10:52;;;;;;;2.08;1.70;;;;;;;;;;5098454;28;20376;-86
2022/06/13 15:13:22;;;;;;;1.70;1.40;;;;;;;;;;5095703;28;20034;-88
2022/06/13 15:15:54;;;;;;;2.33;1.52;;;;;;;;;;5091299;28;20058;-89
2022/06/13 15:18:23;;;;;;;1.80;1.50;;;;;;;;;;5094137;28;20019;-87
2022/06/13 15:20:50;;;;;;;1.77;1.33;;;;;;;;;;5096873;28;20030;-89
2022/06/13 15:23:20;;;;;;;1.55;1.35;;;;;;;;;;5095025;28;20051;-88
2022/06/13 15:25:49;;;;;;;4.05;1.65;;;;;;;;;;5094884;28;20452;-88
2022/06/13 15:28:18;;;;;;;1.83;1.48;;;;;;;;;;5112594;28;20102;-87
2022/06/13 15:31:13;;;;;;;5.18;1.63;;;;;;;;;;5095886;28;20516;-88
2022/06/13 15:33:38;;;;;;;1.63;1.50;;;;;;;;;;5093748;28;20471;-87
2022/06/13 15:36:11;;;;;;;2.67;1.90;;;;;;;;;;5111040;28;20076;-86
2022/06/13 15:38:45;;;;;;;1.48;1.38;;;;;;;;;;5093315;28;20027;-88
2022/06/13 15:41:13;;;;;;;1.70;1.40;;;;;;;;;;5109159;28;20027;-88
2022/06/13 15:43:47;;;;;;;1.58;1.48;;;;;;;;;;5106775;28;20028;-86
2022/06/13 15:46:53;;;;;;;1.60;1.50;;;;;;;;;;5108855;28;20128;-85
2022/06/13 15:49:22;;;;;;;1.70;1.35;;;;;;;;;;5096451;28;20040;-86
2022/06/13 15:52:16;;;;;;;1.50;1.40;;;;;;;;;;5092423;28;20492;-86
2022/06/13 15:54:55;;;;;;;2.00;1.38;;;;;;;;;;5109764;28;20088;-86
2022/06/13 15:57:21;;;;;;;2.22;1.35;;;;;;;;;;5111527;27;20042;-88
2022/06/13 15:59:56;;;;;;;1.75;1.60;;;;;;;;;;5109049;28;20062;-88